Time;durP1;ratioP1;P1;durP2;ratioP2;P2;SDS_P1;SDS_P2;PMS_P1;PMS_P2;Temp;Humidity;BMP_temperature;BMP_pressure;BME280_temperature;BME280_humidity;BME280_pressure;Samples;Min_cycle;Max_cycle;Signal;HPM_P1;HPM_P2
2023/07/26 00:00:31;;;;;;;;;3.00;3.00;;;;;24.34;41.80;99670.52;109969;1267;18646;-35
2023/07/26 00:03:19;;;;;;;;;3.00;3.00;;;;;24.34;41.75;99673.02;109987;1267;22445;-35
2023/07/26 00:05:47;;;;;;;;;3.00;3.00;;;;;24.34;41.78;99678.95;109928;1262;19621;-35
2023/07/26 00:08:15;;;;;;;;;3.00;3.00;;;;;24.34;41.51;99676.48;109969;1267;18604;-35
2023/07/26 00:10:43;;;;;;;;;3.00;3.00;;;;;24.35;41.46;99676.41;109920;1267;19420;-35
2023/07/26 00:13:10;;;;;;;;;5.00;3.00;;;;;24.33;41.38;99680.34;109911;1254;19564;-35
2023/07/26 00:15:38;;;;;;;;;5.50;4.00;;;;;24.32;41.47;99682.94;109896;1267;18648;-35
2023/07/26 00:18:05;;;;;;;;;3.00;3.00;;;;;24.31;41.53;99682.81;109859;1253;183278;-33
2023/07/26 00:20:33;;;;;;;;;3.00;3.00;;;;;24.33;41.41;99684.33;110013;1252;21187;-34
2023/07/26 00:23:01;;;;;;;;;4.00;4.00;;;;;24.33;41.43;99683.13;110013;1252;20022;-36
2023/07/26 00:25:28;;;;;;;;;3.00;3.00;;;;;24.34;41.14;99685.14;109972;1253;20640;-35
2023/07/26 00:27:56;;;;;;;;;3.00;3.00;;;;;24.33;41.15;99688.33;109974;1254;19786;-35
2023/07/26 00:30:23;;;;;;;;;3.00;3.00;;;;;24.34;41.36;99688.41;109999;1253;20061;-35
2023/07/26 00:32:51;;;;;;;;;3.00;3.00;;;;;24.32;41.17;99691.05;109996;1254;21001;-35
2023/07/26 00:35:19;;;;;;;;;2.00;2.00;;;;;24.29;41.16;99695.55;110051;1268;18403;-36
2023/07/26 00:37:46;;;;;;;;;3.00;3.00;;;;;24.32;40.99;99695.69;110016;1267;18633;-36
2023/07/26 00:40:14;;;;;;;;;5.00;3.00;;;;;24.34;40.93;99701.95;109998;1267;19449;-36
2023/07/26 00:42:42;;;;;;;;;5.00;3.00;;;;;24.34;40.81;99700.62;109967;1268;18392;-35
2023/07/26 00:45:09;;;;;;;;;3.00;3.00;;;;;24.33;40.70;99704.09;109847;1267;20081;-35
2023/07/26 00:47:37;;;;;;;;;3.00;3.00;;;;;24.31;40.75;99708.70;109931;1260;20936;-35
2023/07/26 00:50:04;;;;;;;;;4.00;3.00;;;;;24.31;40.76;99711.66;110030;1267;18200;-36
2023/07/26 00:52:32;;;;;;;;;2.00;2.00;;;;;24.31;40.37;99716.05;109975;1267;20026;-35
2023/07/26 00:55:02;;;;;;;;;3.00;3.00;;;;;24.33;40.41;99715.82;110012;1267;19368;-35
2023/07/26 00:57:30;;;;;;;;;4.00;4.00;;;;;24.29;40.59;99718.92;109960;1268;22854;-35
2023/07/26 00:59:57;;;;;;;;;5.00;5.00;;;;;24.31;40.39;99723.22;109992;1267;18820;-35
2023/07/26 01:02:25;;;;;;;;;5.00;3.00;;;;;24.30;40.18;99725.60;109998;1253;20801;-34
2023/07/26 01:04:53;;;;;;;;;5.00;4.00;;;;;24.28;40.32;99732.38;110001;1252;18305;-35
2023/07/26 01:07:20;;;;;;;;;2.00;2.00;;;;;24.29;40.23;99730.48;109965;1268;18638;-36
2023/07/26 01:09:48;;;;;;;;;3.00;3.00;;;;;24.30;40.19;99731.02;109982;1267;19470;-35
2023/07/26 01:12:16;;;;;;;;;6.00;5.67;;;;;24.29;40.30;99734.80;109994;1268;19573;-35
2023/07/26 01:14:43;;;;;;;;;2.00;2.00;;;;;24.32;39.76;99734.52;109998;1259;19847;-35
2023/07/26 01:17:11;;;;;;;;;2.67;2.67;;;;;24.29;39.91;99736.19;110005;1267;19364;-36
2023/07/26 01:19:39;;;;;;;;;5.00;5.00;;;;;24.30;39.85;99730.52;110011;1253;18503;-36
2023/07/26 01:22:06;;;;;;;;;3.00;3.00;;;;;24.28;40.01;99732.81;110021;1259;18970;-36
2023/07/26 01:24:34;;;;;;;;;3.00;3.00;;;;;24.27;40.13;99737.04;109971;1254;20810;-36
2023/07/26 01:27:02;;;;;;;;;3.00;3.00;;;;;24.33;40.14;99740.09;109989;1253;19847;-35
2023/07/26 01:29:29;;;;;;;;;3.00;3.00;;;;;24.31;40.28;99740.54;110000;1268;18606;-35
2023/07/26 01:31:57;;;;;;;;;3.00;3.00;;;;;24.30;40.21;99742.95;109903;1253;20796;-36
2023/07/26 01:34:25;;;;;;;;;2.00;2.00;;;;;24.31;39.91;99747.55;109903;1252;19684;-36
2023/07/26 01:36:52;;;;;;;;;5.00;3.00;;;;;24.31;39.99;99750.69;109831;1259;20055;-36
2023/07/26 01:39:20;;;;;;;;;5.00;3.00;;;;;24.31;40.13;99756.83;110026;1267;19243;-36
2023/07/26 01:41:47;;;;;;;;;3.00;3.00;;;;;24.31;40.32;99761.34;109965;1267;19574;-35
2023/07/26 01:44:15;;;;;;;;;2.00;2.00;;;;;24.31;40.25;99762.50;109964;1252;18866;-35
2023/07/26 01:46:43;;;;;;;;;4.00;2.50;;;;;24.32;40.13;99764.98;110005;1253;20958;-35
2023/07/26 01:49:10;;;;;;;;;2.00;2.00;;;;;24.32;40.11;99761.89;109980;1259;19469;-35
2023/07/26 01:51:38;;;;;;;;;3.00;3.00;;;;;24.31;40.22;99763.98;109926;1253;18650;-35
2023/07/26 01:54:07;;;;;;;;;2.00;2.00;;;;;24.30;40.21;99764.49;109979;1268;21094;-36
2023/07/26 01:56:34;;;;;;;;;3.00;3.00;;;;;24.32;40.17;99769.39;109983;1267;18460;-35
2023/07/26 01:59:02;;;;;;;;;3.00;3.00;;;;;24.30;40.27;99771.84;110015;1267;19927;-36
2023/07/26 02:01:31;;;;;;;;;3.00;2.00;;;;;24.30;40.25;99771.02;109985;1267;19496;-35
2023/07/26 02:03:58;;;;;;;;;2.67;2.67;;;;;24.30;40.38;99768.10;109974;1254;19595;-35
2023/07/26 02:06:26;;;;;;;;;3.00;2.50;;;;;24.30;40.42;99773.16;109987;1252;19917;-35
2023/07/26 02:08:54;;;;;;;;;2.00;2.00;;;;;24.30;40.24;99772.12;110009;1254;20827;-35
2023/07/26 02:11:21;;;;;;;;;3.00;3.00;;;;;24.30;40.07;99770.80;109960;1267;19492;-35
2023/07/26 02:13:49;;;;;;;;;2.00;2.00;;;;;24.29;40.03;99776.30;109884;1253;20490;-35
2023/07/26 02:16:17;;;;;;;;;3.00;3.00;;;;;24.29;40.18;99777.02;109736;1260;20713;-35
2023/07/26 02:18:44;;;;;;;;;5.00;4.00;;;;;24.30;40.25;99779.11;109603;1254;19767;-35
2023/07/26 02:21:12;;;;;;;;;3.00;3.00;;;;;24.30;39.91;99776.98;109633;1252;18880;-35
2023/07/26 02:23:39;;;;;;;;;5.00;5.00;;;;;24.29;40.05;99780.36;109536;1268;21040;-35
2023/07/26 02:26:07;;;;;;;;;3.00;3.00;;;;;24.29;40.08;99783.20;109602;1268;18588;-35
2023/07/26 02:28:35;;;;;;;;;5.00;5.00;;;;;24.28;40.03;99784.64;109581;1268;18643;-35
2023/07/26 02:31:02;;;;;;;;;4.00;2.50;;;;;24.27;39.92;99788.46;109645;1268;19406;-35
2023/07/26 02:33:30;;;;;;;;;2.00;2.00;;;;;24.25;39.84;99788.86;109593;1261;19643;-35
2023/07/26 02:35:59;;;;;;;;;3.00;3.00;;;;;24.26;40.05;99795.70;109600;1253;18881;-35
2023/07/26 02:38:27;;;;;;;;;5.00;5.00;;;;;24.26;40.00;99796.09;109590;1268;20816;-35
2023/07/26 02:40:54;;;;;;;;;2.00;2.00;;;;;24.27;39.95;99796.94;109588;1268;19552;-35
2023/07/26 02:43:22;;;;;;;;;3.00;3.00;;;;;24.27;40.05;99804.27;109597;1268;19494;-35
2023/07/26 02:45:49;;;;;;;;;3.67;3.67;;;;;24.27;40.00;99811.02;109965;1253;20835;-35
2023/07/26 02:48:17;;;;;;;;;3.00;3.00;;;;;24.25;40.21;99814.81;109987;1252;18356;-35
2023/07/26 02:50:45;;;;;;;;;3.00;3.00;;;;;24.24;40.44;99817.46;109949;1254;20073;-35
2023/07/26 02:53:12;;;;;;;;;3.00;2.00;;;;;24.21;40.26;99823.94;109996;1252;20684;-35
2023/07/26 02:55:40;;;;;;;;;3.00;3.00;;;;;24.25;40.31;99827.08;109985;1268;22488;-35
2023/07/26 02:58:08;;;;;;;;;3.00;3.00;;;;;24.26;40.16;99828.10;109980;1267;20403;-35
2023/07/26 03:00:35;;;;;;;;;5.00;3.00;;;;;24.24;40.24;99832.89;109967;1254;20907;-35
2023/07/26 03:03:03;;;;;;;;;;;;;;;24.26;40.25;99831.77;110003;1267;18402;-35
2023/07/26 03:05:31;;;;;;;;;3.00;3.00;;;;;24.26;40.58;99831.72;109998;1260;21186;-36
2023/07/26 03:07:59;;;;;;;;;3.00;3.00;;;;;24.26;40.47;99838.23;109998;1254;20955;-36
2023/07/26 03:10:26;;;;;;;;;5.00;5.00;;;;;24.24;40.88;99840.71;110035;1252;19661;-35
2023/07/26 03:12:54;;;;;;;;;5.00;3.67;;;;;24.25;40.83;99844.10;109967;1259;18640;-35
2023/07/26 03:15:22;;;;;;;;;3.00;3.00;;;;;24.26;40.88;99847.25;110023;1268;19802;-35
2023/07/26 03:17:49;;;;;;;;;5.00;5.00;;;;;24.24;41.13;99852.75;110014;1267;18412;-35
2023/07/26 03:20:17;;;;;;;;;5.00;3.00;;;;;24.24;41.19;99855.08;109993;1253;19935;-35
2023/07/26 03:22:44;;;;;;;;;6.00;6.00;;;;;24.25;41.37;99850.93;109970;1254;20739;-35
2023/07/26 03:25:12;;;;;;;;;3.00;3.00;;;;;24.25;41.39;99847.83;109975;1251;19820;-35
2023/07/26 03:27:39;;;;;;;;;5.00;5.00;;;;;24.27;41.54;99853.10;110004;1253;20145;-35
2023/07/26 03:30:07;;;;;;;;;6.00;5.00;;;;;24.26;41.77;99856.29;109988;1267;20739;-35
2023/07/26 03:32:35;;;;;;;;;7.00;7.00;;;;;24.25;41.94;99855.38;110009;1253;18436;-35
2023/07/26 03:35:02;;;;;;;;;6.00;5.00;;;;;24.24;41.82;99858.59;110011;1267;18586;-35
2023/07/26 03:37:30;;;;;;;;;7.50;6.00;;;;;24.25;41.88;99857.40;109929;1268;20721;-35
2023/07/26 03:39:58;;;;;;;;;5.00;5.00;;;;;24.23;42.11;99854.98;109985;1268;19523;-35
2023/07/26 03:42:25;;;;;;;;;4.00;4.00;;;;;24.24;42.16;99856.33;110001;1267;19964;-35
2023/07/26 03:44:53;;;;;;;;;6.00;6.00;;;;;24.23;42.23;99863.66;109960;1268;22794;-35
2023/07/26 03:47:21;;;;;;;;;7.00;6.00;;;;;24.23;42.20;99866.95;110000;1267;19823;-35
2023/07/26 03:49:48;;;;;;;;;6.00;6.00;;;;;24.20;42.37;99869.35;110033;1251;20068;-36
2023/07/26 03:52:16;;;;;;;;;4.00;4.00;;;;;24.22;42.37;99867.75;110027;1252;21191;-36
2023/07/26 03:54:45;;;;;;;;;5.00;5.00;;;;;24.24;42.45;99870.56;109982;1268;20046;-36
2023/07/26 03:57:12;;;;;;;;;6.00;5.00;;;;;24.23;42.59;99873.36;109979;1268;21523;-36
2023/07/26 03:59:40;;;;;;;;;5.00;5.00;;;;;24.23;42.56;99874.45;109998;1268;19376;-35
2023/07/26 04:02:08;;;;;;;;;5.00;5.00;;;;;24.23;42.77;99876.54;110000;1253;19664;-35
2023/07/26 04:04:35;;;;;;;;;6.00;5.00;;;;;24.19;42.92;99880.20;109995;1268;18620;-35
2023/07/26 04:07:03;;;;;;;;;3.00;3.00;;;;;24.19;42.97;99879.77;109983;1253;20778;-35
2023/07/26 04:09:31;;;;;;;;;5.00;5.00;;;;;24.20;42.79;99881.58;109950;1267;18539;-35
2023/07/26 04:11:58;;;;;;;;;3.00;3.00;;;;;24.22;42.84;99881.92;109952;1267;19941;-35
2023/07/26 04:14:26;;;;;;;;;7.00;6.00;;;;;24.21;42.91;99887.00;109919;1267;21188;-35
2023/07/26 04:16:54;;;;;;;;;5.00;5.00;;;;;24.22;42.69;99883.14;109885;1254;22691;-34
2023/07/26 04:19:21;;;;;;;;;5.00;5.00;;;;;24.23;42.84;99885.20;109973;1267;21418;-34
2023/07/26 04:21:49;;;;;;;;;3.00;3.00;;;;;24.20;42.78;99881.65;109974;1253;20791;-35
2023/07/26 04:24:17;;;;;;;;;5.50;5.00;;;;;24.22;42.89;99885.65;109977;1267;22198;-35
2023/07/26 04:26:44;;;;;;;;;5.00;3.00;;;;;24.26;42.74;99888.05;109998;1267;20029;-35
2023/07/26 04:29:12;;;;;;;;;7.50;7.00;;;;;24.28;42.79;99888.42;109968;1252;19586;-36
2023/07/26 04:31:40;;;;;;;;;10.50;8.00;;;;;24.23;43.21;99892.74;109933;1267;18425;-35
2023/07/26 04:34:07;;;;;;;;;6.50;6.50;;;;;24.15;43.73;99893.92;110005;1267;19902;-34
2023/07/26 04:36:35;;;;;;;;;;;;;;;24.08;43.70;99901.02;110015;1263;19339;-34
2023/07/26 04:39:02;;;;;;;;;7.00;7.00;;;;;24.04;44.28;99901.39;110063;1267;18451;-36
2023/07/26 04:41:30;;;;;;;;;12.00;11.00;;;;;23.97;44.28;99900.86;109942;1268;20344;-36
2023/07/26 04:43:58;;;;;;;;;7.00;7.00;;;;;23.96;44.55;99902.59;109959;1253;22855;-36
2023/07/26 04:46:25;;;;;;;;;7.00;6.00;;;;;23.92;44.83;99901.70;110012;1268;20171;-35
2023/07/26 04:48:53;;;;;;;;;7.00;7.00;;;;;23.89;44.87;99901.48;109992;1253;20072;-36
2023/07/26 04:51:22;;;;;;;;;10.00;10.00;;;;;23.90;44.91;99897.47;109979;1253;20736;-36
2023/07/26 04:53:49;;;;;;;;;14.00;10.00;;;;;23.89;44.82;99902.38;109996;1252;22233;-36
2023/07/26 04:56:17;;;;;;;;;10.00;9.00;;;;;23.82;45.18;99906.91;109966;1267;18740;-35
2023/07/26 04:58:45;;;;;;;;;10.00;8.00;;;;;23.74;45.50;99908.10;109969;1254;20770;-35
2023/07/26 05:01:12;;;;;;;;;9.00;7.00;;;;;23.80;45.47;99909.81;109963;1267;19909;-36
2023/07/26 05:03:40;;;;;;;;;10.00;10.00;;;;;23.78;45.85;99909.38;110030;1253;20206;-35
2023/07/26 05:06:08;;;;;;;;;12.00;10.00;;;;;23.75;46.18;99906.66;110004;1267;19506;-36
2023/07/26 05:08:35;;;;;;;;;14.00;12.00;;;;;23.80;45.94;99903.13;109977;1267;18596;-35
2023/07/26 05:11:03;;;;;;;;;10.00;10.00;;;;;23.82;46.24;99899.54;109987;1252;18740;-35
2023/07/26 05:13:31;;;;;;;;;9.00;9.00;;;;;23.82;46.55;99900.30;109964;1267;19332;-36
2023/07/26 05:15:58;;;;;;;;;9.00;9.00;;;;;23.78;46.57;99899.15;110002;1254;19998;-35
2023/07/26 05:18:26;;;;;;;;;12.00;10.00;;;;;23.80;46.59;99898.01;109943;1267;18678;-35
2023/07/26 05:20:53;;;;;;;;;6.00;6.00;;;;;23.77;46.82;99899.81;109873;1268;19288;-36
2023/07/26 05:23:21;;;;;;;;;6.00;6.00;;;;;23.76;46.92;99902.04;109964;1251;18812;-35
2023/07/26 05:25:49;;;;;;;;;7.00;7.00;;;;;23.74;46.85;99901.44;109994;1267;20028;-35
2023/07/26 05:28:16;;;;;;;;;7.00;6.00;;;;;23.72;46.81;99903.71;110066;1268;21223;-35
2023/07/26 05:30:44;;;;;;;;;6.00;6.00;;;;;23.69;46.92;99906.41;109992;1267;18525;-35
2023/07/26 05:33:12;;;;;;;;;6.00;5.67;;;;;23.69;47.04;99909.38;109993;1254;20020;-37
2023/07/26 05:35:40;;;;;;;;;7.00;6.00;;;;;23.68;46.83;99912.14;110008;1253;20782;-36
2023/07/26 05:38:07;;;;;;;;;6.00;6.00;;;;;23.67;46.97;99919.66;109975;1267;19790;-35
2023/07/26 05:40:35;;;;;;;;;7.00;6.00;;;;;23.65;47.07;99922.83;109974;1253;18859;-36
2023/07/26 05:43:03;;;;;;;;;10.50;8.00;;;;;23.62;47.10;99916.92;109866;1267;19389;-36
2023/07/26 05:45:30;;;;;;;;;8.00;7.00;;;;;23.54;47.46;99913.97;110029;1260;19602;-36
2023/07/26 05:47:58;;;;;;;;;11.00;7.00;;;;;23.57;47.41;99919.64;110001;1259;22451;-35
2023/07/26 05:50:26;;;;;;;;;10.00;10.00;;;;;23.48;47.90;99921.86;110051;1251;20862;-35
2023/07/26 05:52:53;;;;;;;;;13.00;13.00;;;;;23.42;47.91;99920.79;110023;1267;21341;-35
2023/07/26 05:55:21;;;;;;;;;6.00;6.00;;;;;23.44;48.08;99921.06;109961;1267;18863;-36
2023/07/26 05:57:48;;;;;;;;;5.00;5.00;;;;;23.59;47.70;99920.10;109950;1268;22855;-36
2023/07/26 06:00:17;;;;;;;;;6.00;6.00;;;;;23.70;47.32;99926.23;110002;1268;19705;-36
2023/07/26 06:02:45;;;;;;;;;6.00;6.00;;;;;23.80;47.75;99930.22;109951;1254;20044;-35
2023/07/26 06:05:13;;;;;;;;;6.00;6.00;;;;;23.87;47.68;99930.37;110037;1253;21910;-34
2023/07/26 06:07:40;;;;;;;;;9.50;9.00;;;;;23.93;47.56;99934.33;109960;1267;18566;-35
2023/07/26 06:10:08;;;;;;;;;6.00;6.00;;;;;23.87;47.80;99938.09;109961;1253;19564;-35
2023/07/26 06:12:36;;;;;;;;;9.00;7.00;;;;;23.64;48.76;99938.42;110029;1268;22235;-35
2023/07/26 06:15:04;;;;;;;;;10.00;9.00;;;;;23.62;48.59;99937.05;109861;1267;19546;-34
2023/07/26 06:17:32;;;;;;;;;9.00;9.00;;;;;23.53;48.43;99939.73;109853;1253;23596;-34
2023/07/26 06:20:00;;;;;;;;;10.00;9.00;;;;;23.60;48.26;99940.54;109890;1253;22883;-35
2023/07/26 06:22:28;;;;;;;;;7.00;7.00;;;;;23.63;48.04;99937.29;109940;1253;22580;-35
2023/07/26 06:24:56;;;;;;;;;10.00;9.00;;;;;23.59;48.22;99933.92;109905;1262;18595;-35
2023/07/26 06:27:25;;;;;;;;;10.00;9.00;;;;;23.47;48.27;99935.38;109889;1267;21743;-35
2023/07/26 06:29:52;;;;;;;;;11.00;10.00;;;;;23.34;48.49;99930.52;109961;1253;20021;-34
2023/07/26 06:32:20;;;;;;;;;10.00;9.00;;;;;23.29;49.19;99932.77;109972;1268;20706;-35
2023/07/26 06:34:48;;;;;;;;;9.00;9.00;;;;;23.46;48.77;99930.70;110012;1267;19567;-34
2023/07/26 06:37:15;;;;;;;;;9.00;9.00;;;;;23.45;49.12;99931.98;110012;1253;20039;-35
2023/07/26 06:39:43;;;;;;;;;7.00;7.00;;;;;23.51;49.08;99930.97;110009;1253;18650;-37
2023/07/26 06:42:11;;;;;;;;;7.00;6.00;;;;;23.54;49.04;99929.89;110021;1252;20919;-35
2023/07/26 06:44:38;;;;;;;;;7.00;7.00;;;;;23.58;48.98;99930.52;109951;1261;22285;-35
2023/07/26 06:47:06;;;;;;;;;9.00;9.00;;;;;23.58;48.81;99933.64;110021;1253;20156;-36
2023/07/26 06:49:33;;;;;;;;;7.00;7.00;;;;;23.54;48.99;99934.69;110014;1267;20733;-35
2023/07/26 06:52:01;;;;;;;;;9.00;6.00;;;;;23.56;48.87;99931.59;109943;1268;22789;-34
2023/07/26 06:54:29;;;;;;;;;7.00;7.00;;;;;23.65;48.59;99930.58;109975;1267;19937;-34
2023/07/26 06:56:57;;;;;;;;;7.00;7.00;;;;;23.77;48.64;99930.45;109954;1267;19577;-33
2023/07/26 06:59:24;;;;;;;;;7.00;6.00;;;;;23.86;48.17;99934.13;109987;1253;20902;-33
2023/07/26 07:01:52;;;;;;;;;6.00;6.00;;;;;23.94;47.78;99940.93;109720;1267;18550;-33
2023/07/26 07:04:20;;;;;;;;;6.00;6.00;;;;;24.01;47.48;99949.55;109554;1253;19594;-33
2023/07/26 07:06:47;;;;;;;;;7.00;7.00;;;;;24.08;47.34;99953.81;109616;1268;18467;-34
2023/07/26 07:09:15;;;;;;;;;5.00;5.00;;;;;24.16;47.19;99958.92;109599;1268;20095;-33
2023/07/26 07:11:43;;;;;;;;;9.00;7.00;;;;;24.23;47.00;99956.67;109986;1253;19380;-34
2023/07/26 07:14:10;;;;;;;;;7.00;6.00;;;;;24.22;46.79;99960.80;109997;1267;18643;-34
2023/07/26 07:16:38;;;;;;;;;7.00;7.00;;;;;24.07;46.74;99955.64;110030;1267;18686;-35
2023/07/26 07:19:06;;;;;;;;;8.00;7.00;;;;;23.96;46.72;99950.35;110034;1267;19789;-35
2023/07/26 07:21:33;;;;;;;;;5.00;5.00;;;;;23.93;46.87;99949.71;110040;1267;18434;-35
2023/07/26 07:24:01;;;;;;;;;6.50;6.50;;;;;23.84;46.86;99949.65;109986;1253;18688;-34
2023/07/26 07:26:29;;;;;;;;;5.00;5.00;;;;;23.84;46.76;99947.90;109865;1252;20805;-34
2023/07/26 07:28:56;;;;;;;;;5.00;5.00;;;;;23.87;46.48;99950.06;109977;1268;19583;-34
2023/07/26 07:31:24;;;;;;;;;9.00;6.00;;;;;23.94;46.53;99950.11;109989;1267;18684;-34
2023/07/26 07:33:52;;;;;;;;;3.00;3.00;;;;;23.99;46.47;99950.33;109985;1252;20825;-34
2023/07/26 07:36:19;;;;;;;;;6.00;6.00;;;;;24.05;46.35;99955.53;110027;1252;19686;-33
2023/07/26 07:38:47;;;;;;;;;6.00;6.00;;;;;24.12;45.97;99957.77;109988;1267;18681;-33
2023/07/26 07:41:15;;;;;;;;;5.00;4.00;;;;;24.17;45.99;99961.38;110005;1254;21159;-33
2023/07/26 07:43:42;;;;;;;;;5.00;3.00;;;;;24.20;45.93;99960.69;109985;1253;19631;-33
2023/07/26 07:46:10;;;;;;;;;5.00;5.00;;;;;24.24;45.72;99963.48;109989;1267;18673;-35
2023/07/26 07:48:38;;;;;;;;;3.00;3.00;;;;;24.21;45.80;99968.38;109978;1268;22080;-35
2023/07/26 07:51:05;;;;;;;;;5.00;5.00;;;;;24.22;45.63;99969.71;109978;1253;20791;-36
2023/07/26 07:53:33;;;;;;;;;6.00;6.00;;;;;24.06;45.66;99968.26;109951;1267;19980;-37
2023/07/26 07:56:01;;;;;;;;;7.00;7.00;;;;;23.86;46.04;99968.36;109983;1267;19528;-36
2023/07/26 07:58:28;;;;;;;;;6.00;6.00;;;;;23.69;46.15;99969.41;109961;1254;22236;-36
2023/07/26 08:00:56;;;;;;;;;5.50;5.00;;;;;23.84;45.79;99968.79;110001;1253;20102;-34
2023/07/26 08:03:23;;;;;;;;;9.00;7.00;;;;;23.98;45.55;99971.95;109947;1268;20775;-35
2023/07/26 08:05:51;;;;;;;;;6.50;6.00;;;;;23.92;45.43;99967.66;109997;1267;19545;-35
2023/07/26 08:08:19;;;;;;;;;7.00;6.00;;;;;23.91;45.31;99969.23;109970;1253;20094;-35
2023/07/26 08:10:46;;;;;;;;;6.00;6.00;;;;;23.83;45.06;99970.63;109951;1253;20824;-35
2023/07/26 08:13:14;;;;;;;;;6.00;6.00;;;;;23.77;44.74;99969.51;109968;1253;18398;-34
2023/07/26 08:15:43;;;;;;;;;6.00;6.00;;;;;23.78;44.42;99973.19;109867;1253;19890;-34
2023/07/26 08:18:10;;;;;;;;;10.00;9.00;;;;;23.67;45.04;99975.36;109841;1267;22109;-34
2023/07/26 08:20:38;;;;;;;;;6.00;6.00;;;;;23.59;45.30;99982.27;109973;1259;18597;-34
2023/07/26 08:23:06;;;;;;;;;6.00;6.00;;;;;23.70;44.67;99988.75;109898;1253;20767;-33
2023/07/26 08:25:33;;;;;;;;;9.00;6.00;;;;;23.75;43.81;99992.20;109849;1268;22239;-33
2023/07/26 08:28:01;;;;;;;;;7.00;7.00;;;;;23.65;43.18;99990.73;109943;1267;18274;-33
2023/07/26 08:30:29;;;;;;;;;9.00;7.00;;;;;23.66;43.28;99989.45;109918;1252;19495;-36
2023/07/26 08:32:56;;;;;;;;;5.50;5.50;;;;;23.66;43.31;99989.93;109926;1267;21015;-36
2023/07/26 08:35:24;;;;;;;;;7.00;6.00;;;;;23.64;43.40;99988.89;109918;1267;18425;-36
2023/07/26 08:37:52;;;;;;;;;6.00;6.00;;;;;23.67;43.37;99992.39;109925;1259;18680;-35
2023/07/26 08:40:19;;;;;;;;;6.50;6.50;;;;;23.64;42.90;99998.08;109906;1268;20751;-35
2023/07/26 08:42:47;;;;;;;;;5.00;5.00;;;;;23.63;42.39;100001.23;109956;1268;22236;-35
2023/07/26 08:45:15;;;;;;;;;6.00;6.00;;;;;23.66;42.01;100001.86;109968;1253;18854;-35
2023/07/26 08:47:43;;;;;;;;;6.00;6.00;;;;;23.63;41.89;100001.59;110014;1252;21020;-34
2023/07/26 08:50:10;;;;;;;;;6.00;6.00;;;;;23.66;41.59;99996.39;109979;1253;19596;-35
2023/07/26 08:52:38;;;;;;;;;6.00;6.00;;;;;23.62;41.44;99995.10;109983;1254;20300;-36
2023/07/26 08:55:06;;;;;;;;;7.00;7.00;;;;;23.57;41.35;99999.48;109950;1254;20816;-36
2023/07/26 08:57:33;;;;;;;;;6.00;6.00;;;;;23.55;40.96;99998.20;109943;1261;19967;-35
2023/07/26 09:00:01;;;;;;;;;6.00;6.00;;;;;23.53;41.32;99999.72;109663;1253;21242;-35
2023/07/26 09:02:29;;;;;;;;;6.00;6.00;;;;;23.57;41.48;99998.93;109681;1254;20651;-35
2023/07/26 09:04:56;;;;;;;;;5.00;5.00;;;;;23.51;41.57;99999.35;109679;1254;20558;-35
2023/07/26 09:07:24;;;;;;;;;6.00;6.00;;;;;23.48;41.06;99995.01;109613;1260;19010;-35
2023/07/26 09:09:52;;;;;;;;;4.00;4.00;;;;;23.39;40.94;99999.41;109676;1268;19557;-35
2023/07/26 09:12:20;;;;;;;;;5.00;5.00;;;;;23.39;41.06;99996.78;109670;1252;21370;-36
2023/07/26 09:14:49;;;;;;;;;6.00;6.00;;;;;23.36;40.63;99994.44;109637;1268;18680;-36
2023/07/26 09:17:16;;;;;;;;;6.00;6.00;;;;;23.32;40.08;99993.61;109622;1268;19382;-36
2023/07/26 09:19:44;;;;;;;;;10.00;10.00;;;;;23.21;40.21;99998.09;109626;1268;19793;-36
2023/07/26 09:22:12;;;;;;;;;6.00;5.50;;;;;23.23;40.27;100000.34;109600;1268;18672;-36
2023/07/26 09:24:41;;;;;;;;;7.00;7.00;;;;;23.24;40.64;100000.26;109638;1254;20850;-36
2023/07/26 09:27:08;;;;;;;;;9.00;7.00;;;;;23.17;40.45;100004.84;109587;1254;19696;-36
2023/07/26 09:29:36;;;;;;;;;5.00;5.00;;;;;23.20;40.01;100002.52;109636;1269;18525;-36
2023/07/26 09:32:03;;;;;;;;;8.00;7.00;;;;;23.25;39.97;100005.05;109651;1268;19829;-36
2023/07/26 09:34:31;;;;;;;;;10.00;10.00;;;;;23.30;39.76;100002.83;109613;1255;19882;-35
2023/07/26 09:36:59;;;;;;;;;6.00;6.00;;;;;23.22;39.47;99999.88;109643;1268;21035;-35
2023/07/26 09:39:27;;;;;;;;;11.00;11.00;;;;;23.15;39.38;100002.47;109679;1252;20825;-36
2023/07/26 09:41:54;;;;;;;;;7.00;7.00;;;;;23.12;39.15;100003.78;109633;1254;19991;-36
2023/07/26 09:44:22;;;;;;;;;10.00;10.00;;;;;23.14;39.02;100002.65;109635;1268;20008;-36
2023/07/26 09:46:50;;;;;;;;;6.00;6.00;;;;;23.17;38.44;100001.60;109596;1254;20770;-36
2023/07/26 09:49:18;;;;;;;;;5.00;5.00;;;;;23.09;38.27;100003.04;109812;1267;18613;-36
2023/07/26 09:51:45;;;;;;;;;9.00;6.00;;;;;23.09;37.90;100000.47;109962;1268;19943;-36
2023/07/26 09:54:13;;;;;;;;;9.00;9.00;;;;;23.08;37.90;100003.39;110026;1263;19393;-36
2023/07/26 09:56:41;;;;;;;;;13.00;10.00;;;;;23.09;37.29;99999.48;109989;1252;19624;-35
2023/07/26 09:59:08;;;;;;;;;10.00;10.00;;;;;23.04;37.30;100001.44;110014;1267;20003;-35
2023/07/26 10:01:36;;;;;;;;;13.00;12.00;;;;;23.10;37.54;100000.83;110003;1254;19443;-35
2023/07/26 10:04:04;;;;;;;;;9.00;9.00;;;;;23.09;37.50;99994.17;109921;1267;18597;-35
2023/07/26 10:06:31;;;;;;;;;12.00;12.00;;;;;23.07;37.65;99992.70;109948;1267;19991;-35
2023/07/26 10:08:59;;;;;;;;;12.00;10.00;;;;;23.03;37.33;99992.56;110021;1267;19762;-35
2023/07/26 10:11:27;;;;;;;;;11.00;9.50;;;;;23.05;37.01;99995.95;109967;1267;19282;-36
2023/07/26 10:13:54;;;;;;;;;8.00;6.00;;;;;23.01;37.29;99990.45;109917;1267;20291;-35
2023/07/26 10:16:22;;;;;;;;;9.00;8.50;;;;;23.04;37.44;99998.58;109914;1253;19226;-36
2023/07/26 10:18:50;;;;;;;;;13.00;12.00;;;;;23.01;37.61;99998.48;109868;1268;18526;-35
2023/07/26 10:21:18;;;;;;;;;5.00;5.00;;;;;23.10;38.07;100005.14;109924;1268;20062;-36
2023/07/26 10:23:46;;;;;;;;;9.00;9.00;;;;;23.33;38.44;100007.61;110066;1253;20900;-37
2023/07/26 10:26:14;;;;;;;;;7.00;6.00;;;;;23.41;37.85;100000.56;110003;1252;20781;-36
2023/07/26 10:28:41;;;;;;;;;5.00;5.00;;;;;23.48;37.88;100005.94;109967;1267;22255;-36
2023/07/26 10:31:09;;;;;;;;;5.00;5.00;;;;;23.53;38.11;100011.92;109980;1267;19476;-35
2023/07/26 10:33:36;;;;;;;;;5.00;5.00;;;;;23.51;38.38;100006.30;109989;1252;19668;-36
2023/07/26 10:36:07;;;;;;;;;7.50;5.50;;;;;23.55;38.21;100003.85;109967;1267;20021;-35
2023/07/26 10:38:35;;;;;;;;;5.00;5.00;;;;;23.58;38.32;100001.83;110009;1267;19889;-36
2023/07/26 10:41:02;;;;;;;;;6.00;6.00;;;;;23.62;37.88;100004.38;109950;1267;21125;-35
2023/07/26 10:43:30;;;;;;;;;6.00;6.00;;;;;23.63;37.87;100009.85;109933;1253;20378;-35
2023/07/26 10:45:58;;;;;;;;;5.00;5.00;;;;;23.65;38.32;100011.89;109998;1268;19373;-35
2023/07/26 10:48:25;;;;;;;;;5.00;5.00;;;;;23.75;39.27;100009.38;109964;1267;19600;-35
2023/07/26 10:50:53;;;;;;;;;3.00;3.00;;;;;23.83;39.22;100019.73;110007;1259;20117;-35
2023/07/26 10:53:21;;;;;;;;;3.00;3.00;;;;;23.87;39.44;100018.34;109995;1268;19367;-35
2023/07/26 10:55:48;;;;;;;;;5.00;5.00;;;;;23.93;39.09;100016.85;109955;1268;21020;-34
2023/07/26 10:58:16;;;;;;;;;3.00;3.00;;;;;23.95;38.77;100012.58;109983;1267;20092;-35
2023/07/26 11:00:45;;;;;;;;;3.00;3.00;;;;;23.86;37.77;100008.30;109981;1268;20955;-35
2023/07/26 11:03:13;;;;;;;;;3.00;3.00;;;;;23.86;37.02;100010.33;110000;1254;21750;-35
2023/07/26 11:05:41;;;;;;;;;3.00;3.00;;;;;23.78;36.28;100010.89;110004;1253;22518;-35
2023/07/26 11:08:08;;;;;;;;;3.00;3.00;;;;;23.78;35.92;100008.26;110024;1253;21149;-35
2023/07/26 11:10:36;;;;;;;;;3.00;3.00;;;;;23.77;35.56;100007.25;110016;1253;20080;-36
2023/07/26 11:13:04;;;;;;;;;3.00;3.00;;;;;23.71;35.41;100004.05;109971;1253;19918;-36
2023/07/26 11:15:31;;;;;;;;;3.00;3.00;;;;;23.73;35.16;100004.86;110019;1267;19385;-36
2023/07/26 11:17:59;;;;;;;;;5.00;3.00;;;;;23.63;35.39;100005.30;109979;1253;18362;-35
2023/07/26 11:20:27;;;;;;;;;3.00;3.00;;;;;23.64;34.98;100004.81;109993;1267;18646;-35
2023/07/26 11:22:54;;;;;;;;;3.00;3.00;;;;;23.60;34.92;100006.53;110014;1267;22714;-35